Amity Harbor, New York
Current Conditions -  °F | °C
As of 6:53 PM on Saturday 20 Dec 2014 (Local Time) from KFRG Reporting Station
Overcast Overcast  
Wind Chill:   Ceiling: 2800
Heat Index:   Visibility: 10mi
Dew Point: -6°   Wind: 3mph
Humidity: 61%   Direction: 350°N
Pressure: 30.28"   Gusts: NA
Location:  40.6858°N, 73.4152°W
Report Text: KFRG 202353Z 35003KT 10SM OVC028 01/M06 A3028 RMK AO2 SLP255 T00061061 10006 20000 53005
Loading
Personal Weather Stations






























Interactive Weather Map New forecast layout! Learn more

10-Day Weather Forecast

Advertisements
Track Severe Weather on mobile